Aviation Forecast PDF Print E-mail

 
met_logo

NATIONAL METEOROLOGICAL SERVICE OF BELIZE

Area Forecast for the Country of Belize


For the period from:

1200 26 FEBRUARY 2017

to

2400 26 FEBRUARY 2017

All Heights in the forecast are above sea level. PS= Positive, MS= Minus. All times are UTC.


A.

SPECIAL FEATURES of the METEOROLOGICAL SITUATION

MAINLY FAIR WEATHER CONDITIONS PREVAIL OVER THE AREA...

B.

HEIGHT (Ft)

WIND (True Degrees and Knots)

TEMPERATURE (°C)

Surface

09008

  

PS30-33

2,000

08015

PS21

5,000

07010

PS18

10,000

07010

PS08

C.

CLOUDS (Amount, Type, Ceiling and Top(optional))

 

 FEW/SCT CU BASES 2,000-3000 FT TOPS 6,000-8,000FT

 

 

 

 


D.

SURFACE VISIBILITY:  GREATERN THAN 10KM . 500M IN HILL FOG . 


E.

WEATHER:   MOSTLY SUNNY SKIES WITH LITTLE OR NO RAINFALL. EARLY MORNING HILL FOG .


Remarks, Warnings, Turbulence

Barometric Changes

LOW CLOUDS COVERING HILLS;

RISING

G.

OUTLOOK:

TO 1200 27 FEB 2017

 PARTLY CLOUDY WITH ISOLATED SHOWERS.

H. 

TAF MZBZ

261040Z 2612/2712 09008KT 9999 SCT023 PROB30 TEMPO 2709/2712 5000 SHRA BKN015=

Meteorological Office:

BELIZE

Issued at:

1130 26 FEBRUARY 2017

Forecaster:

R. Gordon